Time;durP1;ratioP1;P1;durP2;ratioP2;P2;SDS_P1;SDS_P2;PMS_P1;PMS_P2;Temp;Humidity;BMP_temperature;BMP_pressure;BME280_temperature;BME280_humidity;BME280_pressure;Samples;Min_cycle;Max_cycle;Signal;HPM_P1;HPM_P2
2022/04/02 18:54:02;;;;;;;2.83;1.90;;;3.70;99.90;;;;;;5095262;27;20560;-65
2022/04/02 18:56:27;;;;;;;4.57;3.00;;;3.50;99.90;;;;;;5081908;28;20210;-67
2022/04/02 18:58:53;;;;;;;4.60;3.30;;;3.60;99.90;;;;;;5092848;28;20188;-66
2022/04/02 19:01:19;;;;;;;4.60;3.70;;;3.80;99.90;;;;;;5081837;28;20177;-66
2022/04/02 19:03:45;;;;;;;5.63;4.27;;;4.00;99.90;;;;;;5082058;28;20196;-66
2022/04/02 19:06:11;;;;;;;5.13;4.37;;;4.20;99.90;;;;;;5078034;28;20176;-65
2022/04/02 19:08:37;;;;;;;4.67;4.17;;;4.30;99.90;;;;;;5087958;28;20183;-66
2022/04/02 19:11:03;;;;;;;4.73;4.13;;;4.50;99.90;;;;;;5123053;27;20269;-65
2022/04/02 19:13:29;;;;;;;8.33;4.87;;;4.60;99.90;;;;;;5125227;27;20218;-66
2022/04/02 19:15:56;;;;;;;5.93;5.33;;;4.70;99.90;;;;;;5121979;27;20176;-65
2022/04/02 19:18:22;;;;;;;7.23;5.60;;;4.80;99.90;;;;;;5091908;28;20184;-65
2022/04/02 19:20:48;;;;;;;5.60;4.40;;;4.90;99.90;;;;;;5083860;28;20172;-65
2022/04/02 19:23:14;;;;;;;5.73;4.67;;;5.00;99.90;;;;;;5119156;27;20192;-65
2022/04/02 19:25:40;;;;;;;7.47;5.30;;;5.10;99.90;;;;;;5117856;27;20177;-64
2022/04/02 19:28:08;;;;;;;6.70;5.10;;;5.10;99.90;;;;;;5123969;27;20184;-65
2022/04/02 19:30:36;;;;;;;5.40;4.43;;;5.20;99.90;;;;;;5089000;28;20279;-65
2022/04/02 19:33:02;;;;;;;6.33;4.20;;;5.20;99.90;;;;;;5086338;28;20286;-65
2022/04/02 19:35:30;;;;;;;7.40;5.00;;;5.20;99.90;;;;;;5079060;28;20177;-65
2022/04/02 19:37:59;;;;;;;5.70;4.23;;;5.30;99.90;;;;;;5091860;28;20281;-65
2022/04/02 19:40:25;;;;;;;6.80;4.33;;;5.30;99.90;;;;;;5087747;28;20199;-65
2022/04/02 19:42:50;;;;;;;4.67;4.07;;;5.40;99.90;;;;;;5122591;27;20239;-65
2022/04/02 19:45:18;;;;;;;6.60;4.40;;;5.40;99.90;;;;;;5081743;28;20211;-66
2022/04/02 19:47:44;;;;;;;4.60;3.73;;;5.40;99.90;;;;;;5120768;28;20240;-65
2022/04/02 19:50:13;;;;;;;5.20;4.03;;;5.40;99.90;;;;;;5087753;28;20211;-65
2022/04/02 19:52:41;;;;;;;4.10;3.80;;;5.50;99.90;;;;;;5088202;28;20254;-65
2022/04/02 19:55:10;;;;;;;4.13;3.70;;;5.50;99.90;;;;;;5081394;28;20177;-66
2022/04/02 19:57:36;;;;;;;4.97;3.87;;;5.50;99.90;;;;;;5123927;27;20229;-65
2022/04/02 20:00:09;;;;;;;4.33;3.60;;;5.60;99.90;;;;;;5116787;27;20296;-66
2022/04/02 20:02:40;;;;;;;4.40;4.00;;;5.60;99.90;;;;;;5124612;27;20264;-65
2022/04/02 20:05:09;;;;;;;5.83;4.03;;;5.60;99.90;;;;;;5069387;28;20180;-64
2022/04/02 20:07:37;;;;;;;4.80;4.17;;;5.60;99.90;;;;;;5075283;28;20169;-65
2022/04/02 20:10:06;;;;;;;5.17;4.57;;;5.60;99.90;;;;;;5109851;27;20192;-65
2022/04/02 20:12:35;;;;;;;4.70;4.30;;;5.60;99.90;;;;;;5073669;28;20185;-66
2022/04/02 20:15:09;;;;;;;5.10;4.37;;;5.60;99.90;;;;;;5075741;28;20242;-66
2022/04/02 20:17:39;;;;;;;5.90;4.80;;;5.60;99.90;;;;;;5071834;28;20175;-66
2022/04/02 20:20:09;;;;;;;5.33;4.37;;;5.50;99.90;;;;;;5073497;28;20184;-65
2022/04/02 20:22:35;;;;;;;6.20;4.63;;;5.50;99.90;;;;;;5065011;28;20281;-66
2022/04/02 20:25:01;;;;;;;5.97;4.90;;;5.50;99.90;;;;;;5068756;28;20192;-66
2022/04/02 20:27:26;;;;;;;4.93;4.43;;;5.50;99.90;;;;;;5109707;28;20176;-66
2022/04/02 20:29:53;;;;;;;7.43;4.77;;;5.40;99.90;;;;;;5073913;28;20185;-66
2022/04/02 20:32:23;;;;;;;5.80;4.33;;;5.40;99.90;;;;;;5107641;28;20200;-66
2022/04/02 20:34:51;;;;;;;5.47;4.47;;;5.40;99.90;;;;;;5107650;28;20165;-65
2022/04/02 20:37:17;;;;;;;5.93;4.60;;;5.40;99.90;;;;;;5088091;28;20242;-67
2022/04/02 20:39:43;;;;;;;4.33;3.70;;;5.40;99.90;;;;;;5065695;28;20258;-65
2022/04/02 20:42:11;;;;;;;5.00;4.37;;;5.40;99.90;;;;;;5069785;28;20177;-65
2022/04/02 20:44:36;;;;;;;4.70;3.93;;;5.30;99.90;;;;;;5075524;28;20203;-66
2022/04/02 20:47:02;;;;;;;5.27;3.80;;;5.30;99.90;;;;;;5101094;27;20684;-66
2022/04/02 20:49:28;;;;;;;4.73;3.53;;;5.30;99.90;;;;;;5073379;28;20186;-66
2022/04/02 20:51:53;;;;;;;3.70;3.13;;;5.30;99.90;;;;;;5073470;28;20200;-66
2022/04/02 20:54:19;;;;;;;3.87;3.07;;;5.30;99.90;;;;;;5073299;28;20172;-67
2022/04/02 20:56:49;;;;;;;4.30;3.50;;;5.30;99.90;;;;;;5073385;28;20218;-66
2022/04/02 20:59:17;;;;;;;4.83;3.70;;;5.30;99.90;;;;;;5093968;28;20447;-66
2022/04/02 21:01:43;;;;;;;3.73;3.23;;;5.20;99.90;;;;;;5102653;28;20189;-66
2022/04/02 21:04:13;;;;;;;3.77;3.17;;;5.20;99.90;;;;;;5068856;28;20238;-66
2022/04/02 21:06:41;;;;;;;3.70;3.27;;;5.20;99.90;;;;;;5097033;28;20205;-66
2022/04/02 21:09:09;;;;;;;3.23;2.87;;;5.20;99.90;;;;;;5102301;27;20250;-66
2022/04/02 21:11:37;;;;;;;4.93;2.97;;;5.10;99.90;;;;;;5072972;28;20176;-66
2022/04/02 21:14:06;;;;;;;4.33;3.27;;;5.10;99.90;;;;;;5103853;28;20242;-66
2022/04/02 21:16:32;;;;;;;3.83;2.97;;;5.10;99.90;;;;;;5084058;28;20230;-67
2022/04/02 21:18:58;;;;;;;3.97;3.10;;;5.10;99.90;;;;;;5091975;28;20177;-67
2022/04/02 21:21:25;;;;;;;3.30;2.93;;;5.00;99.90;;;;;;5067084;28;20369;-67
2022/04/02 21:23:53;;;;;;;3.70;2.90;;;5.00;99.90;;;;;;5081512;28;20196;-65
2022/04/02 21:26:18;;;;;;;3.13;2.80;;;5.00;99.90;;;;;;5103705;28;20180;-66
2022/04/02 21:28:44;;;;;;;4.37;3.23;;;5.00;99.90;;;;;;5072851;28;20200;-66
2022/04/02 21:31:12;;;;;;;3.70;3.20;;;4.90;99.90;;;;;;5104085;28;20195;-65
2022/04/02 21:33:40;;;;;;;3.57;3.10;;;4.90;99.90;;;;;;5060810;28;20291;-68
2022/04/02 21:36:06;;;;;;;4.70;3.37;;;4.90;99.90;;;;;;5066855;28;20201;-67
2022/04/02 21:38:36;;;;;;;3.60;3.13;;;4.90;99.90;;;;;;5071837;28;20188;-66
2022/04/02 21:41:02;;;;;;;3.10;2.80;;;4.80;99.90;;;;;;5069121;28;20726;-65
2022/04/02 21:43:30;;;;;;;3.40;3.00;;;4.80;99.90;;;;;;5065724;28;20223;-66
2022/04/02 21:45:57;;;;;;;3.60;2.97;;;4.80;99.90;;;;;;5068678;28;20184;-66
2022/04/02 21:48:25;;;;;;;3.33;3.00;;;4.80;99.90;;;;;;5101722;27;20172;-66
2022/04/02 21:50:53;;;;;;;3.33;3.00;;;4.70;99.90;;;;;;5098170;28;20173;-66
2022/04/02 21:53:19;;;;;;;4.00;3.20;;;4.70;99.90;;;;;;5109014;27;20253;-68
2022/04/02 21:55:45;;;;;;;4.10;3.13;;;4.70;99.90;;;;;;5073168;28;20181;-66
2022/04/02 21:58:15;;;;;;;3.80;3.30;;;4.70;99.90;;;;;;5072605;28;20222;-67
2022/04/02 22:00:49;;;;;;;3.47;2.93;;;4.60;99.90;;;;;;5098717;28;20172;-67
2022/04/02 22:03:17;;;;;;;4.53;3.13;;;4.60;99.90;;;;;;5079463;28;20211;-66
2022/04/02 22:05:45;;;;;;;3.50;2.90;;;4.60;99.90;;;;;;5109441;27;20177;-66
2022/04/02 22:08:13;;;;;;;3.50;2.77;;;4.60;99.90;;;;;;5103406;27;20172;-65
2022/04/02 22:10:41;;;;;;;3.17;2.57;;;4.60;99.90;;;;;;5065411;28;20180;-67
2022/04/02 22:13:11;;;;;;;4.10;3.23;;;4.50;99.90;;;;;;5114014;27;20203;-65
2022/04/02 22:15:40;;;;;;;3.20;2.70;;;4.50;99.90;;;;;;5069680;28;20260;-66
2022/04/02 22:18:09;;;;;;;3.80;3.17;;;4.50;99.90;;;;;;5099488;28;20487;-66
2022/04/02 22:20:36;;;;;;;3.43;2.97;;;4.50;99.90;;;;;;5104838;28;20415;-65
2022/04/02 22:23:02;;;;;;;3.47;3.00;;;4.50;99.90;;;;;;5069113;28;20177;-67
2022/04/02 22:25:31;;;;;;;3.23;2.60;;;4.50;99.90;;;;;;5106586;28;20204;-65
2022/04/02 22:27:58;;;;;;;3.07;2.77;;;4.50;99.90;;;;;;5073482;28;20169;-67
2022/04/02 22:30:25;;;;;;;4.97;3.03;;;4.40;99.90;;;;;;5095011;27;20214;-67
2022/04/02 22:32:53;;;;;;;4.00;3.10;;;4.40;99.90;;;;;;5109652;27;20191;-65
2022/04/02 22:35:19;;;;;;;2.87;2.60;;;4.40;99.90;;;;;;5105881;28;20173;-66
2022/04/02 22:37:45;;;;;;;4.13;2.90;;;4.40;99.90;;;;;;5073201;28;20172;-66
2022/04/02 22:40:11;;;;;;;3.40;2.97;;;4.40;99.90;;;;;;5070114;28;20235;-66
2022/04/02 22:42:37;;;;;;;3.07;2.77;;;4.30;99.90;;;;;;5085912;28;20177;-66
2022/04/02 22:45:06;;;;;;;2.93;2.63;;;4.30;99.90;;;;;;5070600;28;20283;-65
2022/04/02 22:47:32;;;;;;;3.37;3.07;;;4.30;99.90;;;;;;5088179;28;20204;-68
2022/04/02 22:50:00;;;;;;;3.20;2.90;;;4.30;99.90;;;;;;5053186;28;20181;-67
2022/04/02 22:52:29;;;;;;;3.43;3.00;;;4.30;99.90;;;;;;5069384;28;20223;-65
2022/04/02 22:54:54;;;;;;;3.63;3.10;;;4.20;99.90;;;;;;5071837;28;20314;-66
2022/04/02 22:57:20;;;;;;;3.53;3.17;;;4.20;99.90;;;;;;5067894;28;20169;-66
2022/04/02 22:59:46;;;;;;;3.47;3.10;;;4.20;99.90;;;;;;5072736;28;20173;-67
2022/04/02 23:02:12;;;;;;;3.47;2.93;;;4.20;99.90;;;;;;5082261;28;20176;-66
2022/04/02 23:04:42;;;;;;;3.83;3.00;;;4.10;99.90;;;;;;5073767;28;20164;-66
2022/04/02 23:07:08;;;;;;;3.77;3.17;;;4.10;99.90;;;;;;5114170;28;20176;-66
2022/04/02 23:09:36;;;;;;;3.10;2.70;;;4.10;99.90;;;;;;5056868;28;20201;-66
2022/04/02 23:12:02;;;;;;;3.27;2.97;;;4.00;99.90;;;;;;5102808;28;20184;-67
2022/04/02 23:14:30;;;;;;;3.10;2.80;;;4.00;99.90;;;;;;5065250;28;20178;-67
2022/04/02 23:16:56;;;;;;;4.00;3.20;;;4.00;99.90;;;;;;5108361;28;20235;-67
2022/04/02 23:19:24;;;;;;;3.50;2.67;;;4.00;99.90;;;;;;5070130;28;20169;-67
2022/04/02 23:21:49;;;;;;;3.20;2.90;;;4.00;99.90;;;;;;5091554;28;20192;-67
2022/04/02 23:24:15;;;;;;;3.10;2.80;;;3.90;99.90;;;;;;5097185;28;20204;-68
2022/04/02 23:26:43;;;;;;;3.33;3.00;;;3.90;99.90;;;;;;5062343;28;20242;-66
2022/04/02 23:29:09;;;;;;;4.20;2.73;;;3.90;99.90;;;;;;5070291;28;20193;-67
2022/04/02 23:31:35;;;;;;;4.33;3.50;;;3.90;99.90;;;;;;5057375;28;20223;-67
2022/04/02 23:34:00;;;;;;;4.87;3.20;;;3.90;99.90;;;;;;5060603;28;20197;-67
2022/04/02 23:36:26;;;;;;;3.70;2.93;;;3.90;99.90;;;;;;5062710;28;20180;-67
2022/04/02 23:38:52;;;;;;;3.50;3.10;;;3.90;99.90;;;;;;5064250;28;20180;-67
2022/04/02 23:41:18;;;;;;;3.50;3.20;;;3.80;99.90;;;;;;5082501;28;20173;-65
2022/04/02 23:43:44;;;;;;;3.30;3.00;;;3.80;99.90;;;;;;5104897;28;20254;-65
2022/04/02 23:46:09;;;;;;;4.60;3.07;;;3.80;99.90;;;;;;5101899;28;20177;-66
2022/04/02 23:48:35;;;;;;;3.93;2.97;;;3.80;99.90;;;;;;5105810;27;20263;-66
2022/04/02 23:51:04;;;;;;;3.43;3.13;;;3.80;99.90;;;;;;5108437;28;20177;-65
2022/04/02 23:53:32;;;;;;;4.20;3.13;;;3.80;99.90;;;;;;5075523;28;20212;-65
2022/04/02 23:55:58;;;;;;;4.57;3.23;;;3.80;99.90;;;;;;5059864;28;20381;-66
2022/04/02 23:58:26;;;;;;;5.13;3.17;;;3.80;99.90;;;;;;5108898;27;20194;-66
